sensor_id;sensor_type;location;lat;lon;timestamp;temperature;humidity
44431;DHT22;30135;47.866;-4.222;2022-08-21T00:01:27;19.40;82.90
44431;DHT22;30135;47.866;-4.222;2022-08-21T00:03:54;19.40;83.10
44431;DHT22;30135;47.866;-4.222;2022-08-21T00:06:22;19.40;83.20
44431;DHT22;30135;47.866;-4.222;2022-08-21T00:08:51;19.40;83.30
44431;DHT22;30135;47.866;-4.222;2022-08-21T00:11:17;19.40;83.30
44431;DHT22;30135;47.866;-4.222;2022-08-21T00:13:43;19.40;83.30
44431;DHT22;30135;47.866;-4.222;2022-08-21T00:16:10;19.40;83.30
44431;DHT22;30135;47.866;-4.222;2022-08-21T00:18:36;19.40;83.40
44431;DHT22;30135;47.866;-4.222;2022-08-21T00:21:03;19.40;83.40
44431;DHT22;30135;47.866;-4.222;2022-08-21T00:23:29;19.40;83.50
44431;DHT22;30135;47.866;-4.222;2022-08-21T00:25:56;19.40;83.60
44431;DHT22;30135;47.866;-4.222;2022-08-21T00:28:21;19.40;84.40
44431;DHT22;30135;47.866;-4.222;2022-08-21T00:30:48;19.30;83.60
44431;DHT22;30135;47.866;-4.222;2022-08-21T00:33:14;19.40;83.80
44431;DHT22;30135;47.866;-4.222;2022-08-21T00:35:41;19.30;83.60
44431;DHT22;30135;47.866;-4.222;2022-08-21T00:38:09;19.30;83.70
44431;DHT22;30135;47.866;-4.222;2022-08-21T00:40:51;19.40;83.80
44431;DHT22;30135;47.866;-4.222;2022-08-21T00:43:24;19.40;83.80
44431;DHT22;30135;47.866;-4.222;2022-08-21T00:45:54;19.40;83.80
44431;DHT22;30135;47.866;-4.222;2022-08-21T00:48:23;19.30;83.80
44431;DHT22;30135;47.866;-4.222;2022-08-21T00:53:38;19.30;83.90
44431;DHT22;30135;47.866;-4.222;2022-08-21T00:56:07;19.30;84.00
44431;DHT22;30135;47.866;-4.222;2022-08-21T00:58:35;19.30;84.00
44431;DHT22;30135;47.866;-4.222;2022-08-21T01:01:05;19.30;84.10
44431;DHT22;30135;47.866;-4.222;2022-08-21T01:03:33;19.30;84.10
44431;DHT22;30135;47.866;-4.222;2022-08-21T01:05:59;19.20;84.00
44431;DHT22;30135;47.866;-4.222;2022-08-21T01:08:26;19.30;84.10
44431;DHT22;30135;47.866;-4.222;2022-08-21T01:10:56;19.20;84.80
44431;DHT22;30135;47.866;-4.222;2022-08-21T01:13:23;19.30;84.20
44431;DHT22;30135;47.866;-4.222;2022-08-21T01:15:52;19.30;84.20
44431;DHT22;30135;47.866;-4.222;2022-08-21T01:18:21;19.30;84.30
44431;DHT22;30135;47.866;-4.222;2022-08-21T01:21:08;19.20;84.30
44431;DHT22;30135;47.866;-4.222;2022-08-21T01:23:41;19.20;84.30
44431;DHT22;30135;47.866;-4.222;2022-08-21T01:26:09;19.20;84.40
44431;DHT22;30135;47.866;-4.222;2022-08-21T01:28:57;19.20;84.40
44431;DHT22;30135;47.866;-4.222;2022-08-21T01:31:26;19.20;84.60
44431;DHT22;30135;47.866;-4.222;2022-08-21T01:33:54;19.20;84.80
44431;DHT22;30135;47.866;-4.222;2022-08-21T01:36:21;19.20;84.70
44431;DHT22;30135;47.866;-4.222;2022-08-21T01:38:48;19.20;84.80
44431;DHT22;30135;47.866;-4.222;2022-08-21T01:41:15;19.20;84.90
44431;DHT22;30135;47.866;-4.222;2022-08-21T01:43:42;19.20;85.00
44431;DHT22;30135;47.866;-4.222;2022-08-21T01:46:09;19.20;85.10
44431;DHT22;30135;47.866;-4.222;2022-08-21T01:48:35;19.20;85.30
44431;DHT22;30135;47.866;-4.222;2022-08-21T01:51:02;19.20;85.40
44431;DHT22;30135;47.866;-4.222;2022-08-21T01:53:30;19.20;85.50
44431;DHT22;30135;47.866;-4.222;2022-08-21T01:55:56;19.20;85.50
44431;DHT22;30135;47.866;-4.222;2022-08-21T01:58:23;19.20;85.60
44431;DHT22;30135;47.866;-4.222;2022-08-21T02:00:49;19.20;85.60
44431;DHT22;30135;47.866;-4.222;2022-08-21T02:03:15;19.20;85.80
44431;DHT22;30135;47.866;-4.222;2022-08-21T02:05:41;19.20;85.80
44431;DHT22;30135;47.866;-4.222;2022-08-21T02:08:07;19.20;85.90
44431;DHT22;30135;47.866;-4.222;2022-08-21T02:10:34;19.20;86.00
44431;DHT22;30135;47.866;-4.222;2022-08-21T02:13:00;19.20;86.10
44431;DHT22;30135;47.866;-4.222;2022-08-21T02:15:28;19.20;86.10
44431;DHT22;30135;47.866;-4.222;2022-08-21T02:17:58;19.20;86.10
44431;DHT22;30135;47.866;-4.222;2022-08-21T02:20:30;19.20;86.10
44431;DHT22;30135;47.866;-4.222;2022-08-21T02:22:58;19.20;86.10
44431;DHT22;30135;47.866;-4.222;2022-08-21T02:25:26;19.20;86.00
44431;DHT22;30135;47.866;-4.222;2022-08-21T02:27:54;19.20;86.00
44431;DHT22;30135;47.866;-4.222;2022-08-21T02:30:33;19.20;86.00
44431;DHT22;30135;47.866;-4.222;2022-08-21T02:33:04;19.20;85.90
44431;DHT22;30135;47.866;-4.222;2022-08-21T02:35:31;19.20;85.90
44431;DHT22;30135;47.866;-4.222;2022-08-21T02:38:00;19.20;85.90
44431;DHT22;30135;47.866;-4.222;2022-08-21T02:40:33;19.20;85.90
44431;DHT22;30135;47.866;-4.222;2022-08-21T02:43:02;19.20;85.90
44431;DHT22;30135;47.866;-4.222;2022-08-21T02:45:29;19.20;85.90
44431;DHT22;30135;47.866;-4.222;2022-08-21T02:47:59;19.10;85.80
44431;DHT22;30135;47.866;-4.222;2022-08-21T02:50:33;19.10;85.90
44431;DHT22;30135;47.866;-4.222;2022-08-21T02:53:13;19.10;85.90
44431;DHT22;30135;47.866;-4.222;2022-08-21T02:55:43;19.10;85.90
44431;DHT22;30135;47.866;-4.222;2022-08-21T02:58:11;19.10;86.00
44431;DHT22;30135;47.866;-4.222;2022-08-21T03:00:38;19.10;86.80
44431;DHT22;30135;47.866;-4.222;2022-08-21T03:03:05;19.10;86.00
44431;DHT22;30135;47.866;-4.222;2022-08-21T03:05:33;19.10;86.10
44431;DHT22;30135;47.866;-4.222;2022-08-21T03:08:05;19.10;86.10
44431;DHT22;30135;47.866;-4.222;2022-08-21T03:10:35;19.10;86.20
44431;DHT22;30135;47.866;-4.222;2022-08-21T03:13:06;19.10;86.30
44431;DHT22;30135;47.866;-4.222;2022-08-21T03:15:32;19.10;86.30
44431;DHT22;30135;47.866;-4.222;2022-08-21T03:17:59;19.10;86.30
44431;DHT22;30135;47.866;-4.222;2022-08-21T03:20:27;19.10;86.40
44431;DHT22;30135;47.866;-4.222;2022-08-21T03:22:54;19.10;86.40
44431;DHT22;30135;47.866;-4.222;2022-08-21T03:25:22;19.10;86.40
44431;DHT22;30135;47.866;-4.222;2022-08-21T03:27:49;19.10;86.50
44431;DHT22;30135;47.866;-4.222;2022-08-21T03:30:16;19.10;86.60
44431;DHT22;30135;47.866;-4.222;2022-08-21T03:32:44;19.10;86.70
44431;DHT22;30135;47.866;-4.222;2022-08-21T03:35:12;19.10;86.80
44431;DHT22;30135;47.866;-4.222;2022-08-21T03:37:39;19.10;86.90
44431;DHT22;30135;47.866;-4.222;2022-08-21T03:40:08;19.10;87.00
44431;DHT22;30135;47.866;-4.222;2022-08-21T03:42:34;19.10;87.10
44431;DHT22;30135;47.866;-4.222;2022-08-21T03:45:01;19.10;87.20
44431;DHT22;30135;47.866;-4.222;2022-08-21T03:47:28;19.10;87.30
44431;DHT22;30135;47.866;-4.222;2022-08-21T03:49:54;19.10;87.50
44431;DHT22;30135;47.866;-4.222;2022-08-21T03:52:20;19.10;87.70
44431;DHT22;30135;47.866;-4.222;2022-08-21T03:54:46;19.10;87.90
44431;DHT22;30135;47.866;-4.222;2022-08-21T03:57:13;19.10;88.00
44431;DHT22;30135;47.866;-4.222;2022-08-21T03:59:39;19.10;88.20
44431;DHT22;30135;47.866;-4.222;2022-08-21T04:02:06;19.10;88.40
44431;DHT22;30135;47.866;-4.222;2022-08-21T04:04:33;19.20;88.60
44431;DHT22;30135;47.866;-4.222;2022-08-21T04:07:00;19.20;88.80
44431;DHT22;30135;47.866;-4.222;2022-08-21T04:09:28;19.20;88.90
44431;DHT22;30135;47.866;-4.222;2022-08-21T04:11:55;19.20;88.90
44431;DHT22;30135;47.866;-4.222;2022-08-21T04:14:22;19.20;89.00
44431;DHT22;30135;47.866;-4.222;2022-08-21T04:16:48;19.20;89.00
44431;DHT22;30135;47.866;-4.222;2022-08-21T04:19:14;19.20;89.10
44431;DHT22;30135;47.866;-4.222;2022-08-21T04:21:41;19.20;89.20
44431;DHT22;30135;47.866;-4.222;2022-08-21T04:24:09;19.20;89.30
44431;DHT22;30135;47.866;-4.222;2022-08-21T04:26:36;19.20;89.30
44431;DHT22;30135;47.866;-4.222;2022-08-21T04:29:04;19.20;89.40
44431;DHT22;30135;47.866;-4.222;2022-08-21T04:31:33;19.20;89.40
44431;DHT22;30135;47.866;-4.222;2022-08-21T04:34:00;19.20;89.40
44431;DHT22;30135;47.866;-4.222;2022-08-21T04:36:26;19.30;89.60
44431;DHT22;30135;47.866;-4.222;2022-08-21T04:38:52;19.30;89.60
44431;DHT22;30135;47.866;-4.222;2022-08-21T04:41:17;19.20;89.60
44431;DHT22;30135;47.866;-4.222;2022-08-21T04:43:44;19.20;89.60
44431;DHT22;30135;47.866;-4.222;2022-08-21T04:46:10;19.20;89.80
44431;DHT22;30135;47.866;-4.222;2022-08-21T04:48:36;19.30;89.90
44431;DHT22;30135;47.866;-4.222;2022-08-21T04:51:09;19.30;90.00
44431;DHT22;30135;47.866;-4.222;2022-08-21T04:53:52;19.30;90.00
44431;DHT22;30135;47.866;-4.222;2022-08-21T04:56:36;19.30;90.10
44431;DHT22;30135;47.866;-4.222;2022-08-21T04:59:15;19.30;90.10
44431;DHT22;30135;47.866;-4.222;2022-08-21T05:01:45;19.30;90.30
44431;DHT22;30135;47.866;-4.222;2022-08-21T05:04:16;19.30;90.30
44431;DHT22;30135;47.866;-4.222;2022-08-21T05:06:46;19.30;90.30
44431;DHT22;30135;47.866;-4.222;2022-08-21T05:09:17;19.30;90.40
44431;DHT22;30135;47.866;-4.222;2022-08-21T05:11:45;19.30;90.50
44431;DHT22;30135;47.866;-4.222;2022-08-21T05:14:12;19.30;90.50
44431;DHT22;30135;47.866;-4.222;2022-08-21T05:16:40;19.30;90.60
44431;DHT22;30135;47.866;-4.222;2022-08-21T05:19:08;19.30;90.60
44431;DHT22;30135;47.866;-4.222;2022-08-21T05:21:35;19.40;90.70
44431;DHT22;30135;47.866;-4.222;2022-08-21T05:24:03;19.40;90.80
44431;DHT22;30135;47.866;-4.222;2022-08-21T05:26:29;19.40;90.80
44431;DHT22;30135;47.866;-4.222;2022-08-21T05:28:56;19.40;90.90
44431;DHT22;30135;47.866;-4.222;2022-08-21T05:31:22;19.40;90.90
44431;DHT22;30135;47.866;-4.222;2022-08-21T05:33:49;19.40;90.90
44431;DHT22;30135;47.866;-4.222;2022-08-21T05:36:18;19.40;90.90
44431;DHT22;30135;47.866;-4.222;2022-08-21T05:38:44;19.40;91.00
44431;DHT22;30135;47.866;-4.222;2022-08-21T05:41:11;19.40;91.00
44431;DHT22;30135;47.866;-4.222;2022-08-21T05:43:38;19.40;91.10
44431;DHT22;30135;47.866;-4.222;2022-08-21T05:46:06;19.40;91.10
44431;DHT22;30135;47.866;-4.222;2022-08-21T05:48:34;19.40;91.10
44431;DHT22;30135;47.866;-4.222;2022-08-21T05:51:08;19.50;91.20
44431;DHT22;30135;47.866;-4.222;2022-08-21T05:53:38;19.40;91.20
44431;DHT22;30135;47.866;-4.222;2022-08-21T05:56:05;19.40;91.30
44431;DHT22;30135;47.866;-4.222;2022-08-21T05:58:33;19.40;91.30
44431;DHT22;30135;47.866;-4.222;2022-08-21T06:01:01;19.40;91.30
44431;DHT22;30135;47.866;-4.222;2022-08-21T06:03:31;19.40;91.40
44431;DHT22;30135;47.866;-4.222;2022-08-21T06:06:00;19.40;91.50
44431;DHT22;30135;47.866;-4.222;2022-08-21T06:08:27;19.40;91.50
44431;DHT22;30135;47.866;-4.222;2022-08-21T06:10:55;19.40;91.50
44431;DHT22;30135;47.866;-4.222;2022-08-21T06:13:25;19.30;91.60
44431;DHT22;30135;47.866;-4.222;2022-08-21T06:18:38;19.30;91.70
44431;DHT22;30135;47.866;-4.222;2022-08-21T06:21:05;19.30;91.80
44431;DHT22;30135;47.866;-4.222;2022-08-21T06:23:33;19.30;91.90
44431;DHT22;30135;47.866;-4.222;2022-08-21T06:26:01;19.30;92.00
44431;DHT22;30135;47.866;-4.222;2022-08-21T06:28:27;19.30;92.00
44431;DHT22;30135;47.866;-4.222;2022-08-21T06:30:53;19.30;92.20
44431;DHT22;30135;47.866;-4.222;2022-08-21T06:33:19;19.30;92.30
44431;DHT22;30135;47.866;-4.222;2022-08-21T06:35:45;19.30;92.40
44431;DHT22;30135;47.866;-4.222;2022-08-21T06:38:12;19.30;92.50
44431;DHT22;30135;47.866;-4.222;2022-08-21T06:40:39;19.30;92.60
44431;DHT22;30135;47.866;-4.222;2022-08-21T06:43:11;19.30;92.70
44431;DHT22;30135;47.866;-4.222;2022-08-21T06:45:40;19.30;92.80
44431;DHT22;30135;47.866;-4.222;2022-08-21T06:48:07;19.30;92.90
44431;DHT22;30135;47.866;-4.222;2022-08-21T06:50:35;19.30;93.30
44431;DHT22;30135;47.866;-4.222;2022-08-21T06:53:07;19.30;93.00
44431;DHT22;30135;47.866;-4.222;2022-08-21T06:55:36;19.30;93.10
44431;DHT22;30135;47.866;-4.222;2022-08-21T06:58:05;19.30;93.20
44431;DHT22;30135;47.866;-4.222;2022-08-21T07:00:37;19.30;93.20
44431;DHT22;30135;47.866;-4.222;2022-08-21T07:03:05;19.30;93.30
44431;DHT22;30135;47.866;-4.222;2022-08-21T07:05:32;19.30;93.40
44431;DHT22;30135;47.866;-4.222;2022-08-21T07:08:00;19.40;93.50
44431;DHT22;30135;47.866;-4.222;2022-08-21T07:10:29;19.40;93.60
44431;DHT22;30135;47.866;-4.222;2022-08-21T07:12:56;19.40;93.70
44431;DHT22;30135;47.866;-4.222;2022-08-21T07:15:22;19.40;93.80
44431;DHT22;30135;47.866;-4.222;2022-08-21T07:17:49;19.40;93.90
44431;DHT22;30135;47.866;-4.222;2022-08-21T07:20:17;19.40;94.00
44431;DHT22;30135;47.866;-4.222;2022-08-21T07:22:48;19.40;94.10
44431;DHT22;30135;47.866;-4.222;2022-08-21T07:25:16;19.50;94.20
44431;DHT22;30135;47.866;-4.222;2022-08-21T07:27:42;19.50;94.20
44431;DHT22;30135;47.866;-4.222;2022-08-21T07:30:09;19.50;94.30
44431;DHT22;30135;47.866;-4.222;2022-08-21T07:32:35;19.50;94.30
44431;DHT22;30135;47.866;-4.222;2022-08-21T07:35:02;19.50;94.30
44431;DHT22;30135;47.866;-4.222;2022-08-21T07:37:29;19.60;94.40
44431;DHT22;30135;47.866;-4.222;2022-08-21T07:39:56;19.60;94.50
44431;DHT22;30135;47.866;-4.222;2022-08-21T07:42:22;19.60;94.60
44431;DHT22;30135;47.866;-4.222;2022-08-21T07:44:50;19.60;94.70
44431;DHT22;30135;47.866;-4.222;2022-08-21T07:47:17;19.60;94.80
44431;DHT22;30135;47.866;-4.222;2022-08-21T07:49:44;19.70;94.90
44431;DHT22;30135;47.866;-4.222;2022-08-21T07:52:12;19.70;95.00
44431;DHT22;30135;47.866;-4.222;2022-08-21T07:54:42;19.70;95.00
44431;DHT22;30135;47.866;-4.222;2022-08-21T07:57:07;19.70;95.10
44431;DHT22;30135;47.866;-4.222;2022-08-21T07:59:33;19.70;95.20
44431;DHT22;30135;47.866;-4.222;2022-08-21T08:02:00;19.80;95.30
44431;DHT22;30135;47.866;-4.222;2022-08-21T08:04:26;19.80;95.30
44431;DHT22;30135;47.866;-4.222;2022-08-21T08:06:54;19.70;95.30
44431;DHT22;30135;47.866;-4.222;2022-08-21T08:09:20;19.80;95.30
44431;DHT22;30135;47.866;-4.222;2022-08-21T08:11:46;19.80;95.30
44431;DHT22;30135;47.866;-4.222;2022-08-21T08:14:13;19.80;95.40
44431;DHT22;30135;47.866;-4.222;2022-08-21T08:16:39;19.80;95.40
44431;DHT22;30135;47.866;-4.222;2022-08-21T08:19:05;19.80;95.50
44431;DHT22;30135;47.866;-4.222;2022-08-21T08:21:32;19.90;95.60
44431;DHT22;30135;47.866;-4.222;2022-08-21T08:24:00;19.80;95.70
44431;DHT22;30135;47.866;-4.222;2022-08-21T08:26:26;19.80;95.70
44431;DHT22;30135;47.866;-4.222;2022-08-21T08:28:52;19.90;95.90
44431;DHT22;30135;47.866;-4.222;2022-08-21T08:31:18;19.90;95.90
44431;DHT22;30135;47.866;-4.222;2022-08-21T08:33:46;19.90;95.90
44431;DHT22;30135;47.866;-4.222;2022-08-21T08:36:16;19.90;95.90
44431;DHT22;30135;47.866;-4.222;2022-08-21T08:38:44;19.90;96.00
44431;DHT22;30135;47.866;-4.222;2022-08-21T08:41:17;20.00;96.00
44431;DHT22;30135;47.866;-4.222;2022-08-21T08:43:51;19.90;96.00
44431;DHT22;30135;47.866;-4.222;2022-08-21T08:46:48;19.90;96.00
44431;DHT22;30135;47.866;-4.222;2022-08-21T08:49:24;20.00;96.00
44431;DHT22;30135;47.866;-4.222;2022-08-21T08:52:11;20.00;96.00
44431;DHT22;30135;47.866;-4.222;2022-08-21T08:55:06;20.00;95.90
44431;DHT22;30135;47.866;-4.222;2022-08-21T08:57:33;20.00;95.80
44431;DHT22;30135;47.866;-4.222;2022-08-21T09:00:05;20.00;95.80
44431;DHT22;30135;47.866;-4.222;2022-08-21T09:02:38;20.00;95.70
44431;DHT22;30135;47.866;-4.222;2022-08-21T09:05:05;19.90;95.50
44431;DHT22;30135;47.866;-4.222;2022-08-21T09:07:45;19.90;95.40
44431;DHT22;30135;47.866;-4.222;2022-08-21T09:11:05;20.00;95.30
44431;DHT22;30135;47.866;-4.222;2022-08-21T09:20:06;19.90;94.70
44431;DHT22;30135;47.866;-4.222;2022-08-21T09:23:08;19.90;94.80
44431;DHT22;30135;47.866;-4.222;2022-08-21T09:28:36;19.90;94.70
44431;DHT22;30135;47.866;-4.222;2022-08-21T09:31:07;19.90;94.60
44431;DHT22;30135;47.866;-4.222;2022-08-21T09:33:37;19.90;94.60
44431;DHT22;30135;47.866;-4.222;2022-08-21T09:36:03;19.90;94.70
44431;DHT22;30135;47.866;-4.222;2022-08-21T09:38:35;19.90;94.60
44431;DHT22;30135;47.866;-4.222;2022-08-21T09:41:08;20.00;94.70
44431;DHT22;30135;47.866;-4.222;2022-08-21T09:43:37;19.90;94.60
44431;DHT22;30135;47.866;-4.222;2022-08-21T09:48:30;20.00;94.60
44431;DHT22;30135;47.866;-4.222;2022-08-21T09:51:12;20.00;94.90
44431;DHT22;30135;47.866;-4.222;2022-08-21T09:53:47;20.00;94.60
44431;DHT22;30135;47.866;-4.222;2022-08-21T09:56:29;20.00;94.50
44431;DHT22;30135;47.866;-4.222;2022-08-21T10:02:01;20.10;94.40
44431;DHT22;30135;47.866;-4.222;2022-08-21T10:04:32;20.00;94.30
44431;DHT22;30135;47.866;-4.222;2022-08-21T10:07:12;20.10;94.30
44431;DHT22;30135;47.866;-4.222;2022-08-21T10:09:41;20.10;94.20
44431;DHT22;30135;47.866;-4.222;2022-08-21T10:12:10;20.10;94.20
44431;DHT22;30135;47.866;-4.222;2022-08-21T10:14:50;20.10;94.20
44431;DHT22;30135;47.866;-4.222;2022-08-21T10:17:44;20.20;94.10
44431;DHT22;30135;47.866;-4.222;2022-08-21T10:20:45;20.20;93.80
44431;DHT22;30135;47.866;-4.222;2022-08-21T10:23:21;20.20;93.90
44431;DHT22;30135;47.866;-4.222;2022-08-21T10:26:34;20.20;93.80
44431;DHT22;30135;47.866;-4.222;2022-08-21T10:29:14;20.30;93.40
44431;DHT22;30135;47.866;-4.222;2022-08-21T10:40:25;20.30;92.90
44431;DHT22;30135;47.866;-4.222;2022-08-21T10:46:46;20.40;92.40
44431;DHT22;30135;47.866;-4.222;2022-08-21T10:55:06;20.40;92.00
44431;DHT22;30135;47.866;-4.222;2022-08-21T10:57:54;20.40;91.80
44431;DHT22;30135;47.866;-4.222;2022-08-21T11:00:40;20.40;91.80
44431;DHT22;30135;47.866;-4.222;2022-08-21T11:06:02;20.40;91.70
44431;DHT22;30135;47.866;-4.222;2022-08-21T11:08:41;20.50;91.70
44431;DHT22;30135;47.866;-4.222;2022-08-21T11:11:27;20.50;91.60
44431;DHT22;30135;47.866;-4.222;2022-08-21T11:14:20;20.50;91.30
44431;DHT22;30135;47.866;-4.222;2022-08-21T11:17:09;20.50;91.40
44431;DHT22;30135;47.866;-4.222;2022-08-21T11:20:20;20.50;91.30
44431;DHT22;30135;47.866;-4.222;2022-08-21T11:25:49;20.60;91.10
44431;DHT22;30135;47.866;-4.222;2022-08-21T11:28:26;20.60;91.10
44431;DHT22;30135;47.866;-4.222;2022-08-21T11:31:42;20.60;90.80
44431;DHT22;30135;47.866;-4.222;2022-08-21T11:43:24;20.80;89.40
44431;DHT22;30135;47.866;-4.222;2022-08-21T11:49:46;20.90;88.60
44431;DHT22;30135;47.866;-4.222;2022-08-21T11:52:28;20.90;88.60
44431;DHT22;30135;47.866;-4.222;2022-08-21T11:55:14;20.90;88.80
44431;DHT22;30135;47.866;-4.222;2022-08-21T12:03:35;20.90;88.10
44431;DHT22;30135;47.866;-4.222;2022-08-21T12:06:14;20.90;86.90
44431;DHT22;30135;47.866;-4.222;2022-08-21T12:08:45;20.90;87.50
44431;DHT22;30135;47.866;-4.222;2022-08-21T12:13:59;20.80;87.20
44431;DHT22;30135;47.866;-4.222;2022-08-21T12:16:34;20.80;87.00
44431;DHT22;30135;47.866;-4.222;2022-08-21T12:21:30;20.80;87.30
44431;DHT22;30135;47.866;-4.222;2022-08-21T12:24:20;20.80;87.40
44431;DHT22;30135;47.866;-4.222;2022-08-21T12:26:59;20.80;87.00
44431;DHT22;30135;47.866;-4.222;2022-08-21T12:30:07;20.80;87.10
44431;DHT22;30135;47.866;-4.222;2022-08-21T12:33:17;20.80;86.50
44431;DHT22;30135;47.866;-4.222;2022-08-21T12:35:46;20.80;86.50
44431;DHT22;30135;47.866;-4.222;2022-08-21T12:38:20;20.80;86.20
44431;DHT22;30135;47.866;-4.222;2022-08-21T12:41:06;20.70;85.30
44431;DHT22;30135;47.866;-4.222;2022-08-21T12:43:43;20.80;84.50
44431;DHT22;30135;47.866;-4.222;2022-08-21T12:46:17;20.70;84.30
44431;DHT22;30135;47.866;-4.222;2022-08-21T12:49:00;20.70;84.40
44431;DHT22;30135;47.866;-4.222;2022-08-21T12:51:45;20.70;84.60
44431;DHT22;30135;47.866;-4.222;2022-08-21T12:54:27;20.70;84.80
44431;DHT22;30135;47.866;-4.222;2022-08-21T12:57:02;20.70;85.00
44431;DHT22;30135;47.866;-4.222;2022-08-21T12:59:31;20.70;85.20
44431;DHT22;30135;47.866;-4.222;2022-08-21T13:02:00;20.70;85.30
44431;DHT22;30135;47.866;-4.222;2022-08-21T13:04:39;20.70;85.20
44431;DHT22;30135;47.866;-4.222;2022-08-21T13:07:09;20.70;85.10
44431;DHT22;30135;47.866;-4.222;2022-08-21T13:09:46;20.70;85.10
44431;DHT22;30135;47.866;-4.222;2022-08-21T13:12:15;20.70;84.80
44431;DHT22;30135;47.866;-4.222;2022-08-21T13:14:44;20.70;84.70
44431;DHT22;30135;47.866;-4.222;2022-08-21T13:17:14;20.70;84.70
44431;DHT22;30135;47.866;-4.222;2022-08-21T13:19:56;20.70;84.40
44431;DHT22;30135;47.866;-4.222;2022-08-21T13:22:27;20.70;84.40
44431;DHT22;30135;47.866;-4.222;2022-08-21T13:24:54;20.70;84.60
44431;DHT22;30135;47.866;-4.222;2022-08-21T13:27:30;20.70;84.50
44431;DHT22;30135;47.866;-4.222;2022-08-21T13:32:34;20.80;84.70
44431;DHT22;30135;47.866;-4.222;2022-08-21T13:35:19;20.80;84.70
44431;DHT22;30135;47.866;-4.222;2022-08-21T13:37:49;20.80;85.00
44431;DHT22;30135;47.866;-4.222;2022-08-21T13:40:46;20.90;85.00
44431;DHT22;30135;47.866;-4.222;2022-08-21T13:43:18;20.90;85.10
44431;DHT22;30135;47.866;-4.222;2022-08-21T13:45:51;20.90;85.00
44431;DHT22;30135;47.866;-4.222;2022-08-21T13:48:20;20.90;85.10
44431;DHT22;30135;47.866;-4.222;2022-08-21T13:50:58;20.90;85.00
44431;DHT22;30135;47.866;-4.222;2022-08-21T13:53:32;20.90;84.90
44431;DHT22;30135;47.866;-4.222;2022-08-21T13:56:25;20.90;85.00
44431;DHT22;30135;47.866;-4.222;2022-08-21T13:58:56;20.90;85.10
44431;DHT22;30135;47.866;-4.222;2022-08-21T14:01:31;20.90;85.30
44431;DHT22;30135;47.866;-4.222;2022-08-21T14:04:49;20.90;85.40
44431;DHT22;30135;47.866;-4.222;2022-08-21T14:07:38;20.90;85.50
44431;DHT22;30135;47.866;-4.222;2022-08-21T14:10:20;20.80;85.80
44431;DHT22;30135;47.866;-4.222;2022-08-21T14:12:58;20.90;86.10
44431;DHT22;30135;47.866;-4.222;2022-08-21T14:15:29;20.90;86.40
44431;DHT22;30135;47.866;-4.222;2022-08-21T14:18:17;20.80;86.30
44431;DHT22;30135;47.866;-4.222;2022-08-21T14:20:45;20.80;86.60
44431;DHT22;30135;47.866;-4.222;2022-08-21T14:23:27;20.90;86.80
44431;DHT22;30135;47.866;-4.222;2022-08-21T14:25:59;20.90;86.90
44431;DHT22;30135;47.866;-4.222;2022-08-21T14:28:46;20.90;87.00
44431;DHT22;30135;47.866;-4.222;2022-08-21T14:31:19;20.90;87.10
44431;DHT22;30135;47.866;-4.222;2022-08-21T14:33:48;20.90;87.20
44431;DHT22;30135;47.866;-4.222;2022-08-21T14:36:15;20.90;87.30
44431;DHT22;30135;47.866;-4.222;2022-08-21T14:38:43;21.00;87.70
44431;DHT22;30135;47.866;-4.222;2022-08-21T14:41:21;21.00;87.80
44431;DHT22;30135;47.866;-4.222;2022-08-21T14:43:51;21.00;87.70
44431;DHT22;30135;47.866;-4.222;2022-08-21T14:46:28;21.00;87.60
44431;DHT22;30135;47.866;-4.222;2022-08-21T14:48:55;21.00;87.60
44431;DHT22;30135;47.866;-4.222;2022-08-21T14:51:22;21.00;87.60
44431;DHT22;30135;47.866;-4.222;2022-08-21T14:53:50;21.00;87.60
44431;DHT22;30135;47.866;-4.222;2022-08-21T14:56:20;21.00;87.70
44431;DHT22;30135;47.866;-4.222;2022-08-21T14:58:48;21.00;87.70
44431;DHT22;30135;47.866;-4.222;2022-08-21T15:01:17;21.00;87.70
44431;DHT22;30135;47.866;-4.222;2022-08-21T15:03:45;21.00;87.60
44431;DHT22;30135;47.866;-4.222;2022-08-21T15:06:14;21.00;87.70
44431;DHT22;30135;47.866;-4.222;2022-08-21T15:08:43;21.00;87.70
44431;DHT22;30135;47.866;-4.222;2022-08-21T15:11:17;21.00;87.60
44431;DHT22;30135;47.866;-4.222;2022-08-21T15:13:45;21.00;87.50
44431;DHT22;30135;47.866;-4.222;2022-08-21T15:16:12;20.90;87.40
44431;DHT22;30135;47.866;-4.222;2022-08-21T15:18:40;20.90;87.40
44431;DHT22;30135;47.866;-4.222;2022-08-21T15:21:07;20.90;87.60
44431;DHT22;30135;47.866;-4.222;2022-08-21T15:23:33;20.90;87.60
44431;DHT22;30135;47.866;-4.222;2022-08-21T15:26:01;20.90;87.70
44431;DHT22;30135;47.866;-4.222;2022-08-21T15:28:27;20.90;87.80
44431;DHT22;30135;47.866;-4.222;2022-08-21T15:30:53;20.90;87.80
44431;DHT22;30135;47.866;-4.222;2022-08-21T15:33:20;20.90;87.90
44431;DHT22;30135;47.866;-4.222;2022-08-21T15:35:49;20.90;87.90
44431;DHT22;30135;47.866;-4.222;2022-08-21T15:38:16;20.90;88.00
44431;DHT22;30135;47.866;-4.222;2022-08-21T15:40:43;20.90;88.10
44431;DHT22;30135;47.866;-4.222;2022-08-21T15:43:18;20.90;88.10
44431;DHT22;30135;47.866;-4.222;2022-08-21T15:45:49;20.90;88.20
44431;DHT22;30135;47.866;-4.222;2022-08-21T15:48:16;20.80;88.20
44431;DHT22;30135;47.866;-4.222;2022-08-21T15:50:43;20.80;88.30
44431;DHT22;30135;47.866;-4.222;2022-08-21T15:53:09;20.80;88.40
44431;DHT22;30135;47.866;-4.222;2022-08-21T15:55:35;20.80;88.60
44431;DHT22;30135;47.866;-4.222;2022-08-21T15:58:03;20.80;88.60
44431;DHT22;30135;47.866;-4.222;2022-08-21T16:00:32;20.80;88.80
44431;DHT22;30135;47.866;-4.222;2022-08-21T16:03:04;20.80;89.00
44431;DHT22;30135;47.866;-4.222;2022-08-21T16:05:37;20.80;89.20
44431;DHT22;30135;47.866;-4.222;2022-08-21T16:08:05;20.80;89.40
44431;DHT22;30135;47.866;-4.222;2022-08-21T16:10:32;20.80;89.70
44431;DHT22;30135;47.866;-4.222;2022-08-21T16:13:07;20.80;89.90
44431;DHT22;30135;47.866;-4.222;2022-08-21T16:15:39;20.80;90.00
44431;DHT22;30135;47.866;-4.222;2022-08-21T16:18:06;20.80;90.10
44431;DHT22;30135;47.866;-4.222;2022-08-21T16:20:32;20.80;90.20
44431;DHT22;30135;47.866;-4.222;2022-08-21T16:22:59;20.80;90.30
44431;DHT22;30135;47.866;-4.222;2022-08-21T16:25:26;20.80;90.40
44431;DHT22;30135;47.866;-4.222;2022-08-21T16:27:56;20.80;90.50
44431;DHT22;30135;47.866;-4.222;2022-08-21T16:30:25;20.80;90.60
44431;DHT22;30135;47.866;-4.222;2022-08-21T16:32:53;20.80;90.70
44431;DHT22;30135;47.866;-4.222;2022-08-21T16:35:21;20.80;90.70
44431;DHT22;30135;47.866;-4.222;2022-08-21T16:37:48;20.80;90.80
44431;DHT22;30135;47.866;-4.222;2022-08-21T16:40:15;20.80;90.90
44431;DHT22;30135;47.866;-4.222;2022-08-21T16:42:41;20.80;90.90
44431;DHT22;30135;47.866;-4.222;2022-08-21T16:45:14;20.80;91.10
44431;DHT22;30135;47.866;-4.222;2022-08-21T16:47:45;20.80;91.20
44431;DHT22;30135;47.866;-4.222;2022-08-21T16:50:16;20.80;91.30
44431;DHT22;30135;47.866;-4.222;2022-08-21T16:52:45;20.80;91.50